createdAt,value
2023-01-13T00:00:09.828Z,99714.59
2023-01-13T00:10:13.816Z,99705.81
2023-01-13T00:20:19.361Z,99690.06
2023-01-13T00:30:22.966Z,99676.13
2023-01-13T00:40:27.996Z,99674.06
2023-01-13T00:50:31.640Z,99678.47
2023-01-13T01:00:36.870Z,99649.38
2023-01-13T01:10:40.486Z,99653.72
2023-01-13T01:20:45.607Z,99651.41
2023-01-13T01:30:49.194Z,99650.28
2023-01-13T01:40:56.311Z,99640.16
2023-01-13T01:51:00.194Z,99638.06
2023-01-13T02:01:05.751Z,99633.44
2023-01-13T02:11:46.848Z,99614.81
2023-01-13T02:22:20.117Z,99594.28
2023-01-13T02:32:31.496Z,99577.00
2023-01-13T02:42:57.706Z,99572.78
2023-01-13T02:53:09.858Z,99551.63
2023-01-13T03:03:13.480Z,99542.16
2023-01-13T03:13:32.617Z,99549.00
2023-01-13T03:23:43.784Z,99559.88
2023-01-13T03:33:55.900Z,99568.53
2023-01-13T03:44:25.507Z,99547.38
2023-01-13T03:54:35.100Z,99539.84
2023-01-13T04:04:45.056Z,99536.66
2023-01-13T04:14:50.928Z,99541.34
2023-01-13T04:24:54.534Z,99516.94
2023-01-13T04:34:59.694Z,99497.41
2023-01-13T04:45:03.347Z,99496.84
2023-01-13T04:55:10.824Z,99484.59
2023-01-13T05:05:14.450Z,99486.06
2023-01-13T05:15:37.637Z,99515.75
2023-01-13T05:25:44.575Z,99532.69
2023-01-13T05:35:50.136Z,99594.28
2023-01-13T05:45:58.447Z,99595.25
2023-01-13T05:56:05.542Z,99636.09
2023-01-13T06:06:09.700Z,99655.78
2023-01-13T06:16:14.982Z,99640.91
2023-01-13T06:26:22.421Z,99635.69
2023-01-13T06:36:32.233Z,99659.69
2023-01-13T06:46:36.397Z,99657.50
2023-01-13T06:56:41.584Z,99632.03
2023-01-13T07:06:45.310Z,99638.31
2023-01-13T07:16:50.438Z,99610.97
2023-01-13T07:26:54.364Z,99643.44
2023-01-13T07:36:59.361Z,99669.25
2023-01-13T07:47:03.078Z,99652.34
2023-01-13T07:57:08.327Z,99674.41
2023-01-13T08:07:12.089Z,99695.59
2023-01-13T08:17:19.159Z,99724.69
2023-01-13T08:27:24.132Z,99730.56
2023-01-13T08:37:29.509Z,99743.63
2023-01-13T08:47:33.345Z,99764.28
2023-01-13T08:57:39.154Z,99754.88
2023-01-13T09:07:42.959Z,99758.03
2023-01-13T09:17:48.168Z,99763.88
2023-01-13T09:27:51.860Z,99772.47
2023-01-13T09:37:57.031Z,99764.03
2023-01-13T09:48:07.087Z,99766.78
2023-01-13T09:58:16.765Z,99790.41
2023-01-13T10:08:24.717Z,99804.41
2023-01-13T10:18:43.112Z,99803.81
2023-01-13T10:28:53.475Z,99777.19
2023-01-13T10:39:09.868Z,99770.88
2023-01-13T10:49:32.730Z,99764.16
2023-01-13T10:59:37.836Z,99752.91
2023-01-13T11:09:41.903Z,99750.31
2023-01-13T11:19:53.420Z,99743.75
2023-01-13T11:30:09.773Z,99755.78
2023-01-13T11:40:20.527Z,99771.69
2023-01-13T11:50:35.693Z,99802.03
2023-01-13T12:01:06.051Z,99782.44
2023-01-13T12:11:20.330Z,99768.03
2023-01-13T12:21:28.396Z,99762.78
2023-01-13T12:31:35.903Z,99783.56
2023-01-13T12:42:01.567Z,99789.03
2023-01-13T12:52:23.275Z,99770.31
2023-01-13T13:02:37.614Z,99771.63
2023-01-13T13:13:17.119Z,99761.97
2023-01-13T13:24:02.872Z,99760.00
2023-01-13T13:34:29.087Z,99791.19
2023-01-13T13:44:57.385Z,99872.66
2023-01-13T13:55:12.380Z,99875.19
2023-01-13T14:05:22.963Z,99877.53
2023-01-13T14:15:35.683Z,99894.34
2023-01-13T14:25:48.558Z,99896.56
2023-01-13T14:36:24.131Z,99913.13
2023-01-13T14:46:39.450Z,99901.47
2023-01-13T14:56:53.704Z,99917.44
2023-01-13T15:06:59.933Z,99928.56
2023-01-13T15:17:03.879Z,99931.69
2023-01-13T15:27:19.122Z,99953.47
2023-01-13T15:37:25.493Z,99983.91
2023-01-13T15:47:30.588Z,99994.16
2023-01-13T15:57:37.325Z,100010.59
2023-01-13T16:07:42.554Z,100008.75
2023-01-13T16:17:47.438Z,100033.50
2023-01-13T16:27:53.251Z,100046.88
2023-01-13T16:37:58.474Z,100068.63
2023-01-13T16:48:04.301Z,100079.88
2023-01-13T16:58:13.538Z,100109.84
2023-01-13T17:08:19.040Z,100120.38
2023-01-13T17:18:22.730Z,100132.59
2023-01-13T17:28:27.751Z,100149.81
2023-01-13T17:38:31.654Z,100147.13
2023-01-13T17:48:36.705Z,100151.56
2023-01-13T17:58:41.492Z,100156.28
2023-01-13T18:08:47.775Z,100184.13
2023-01-13T18:18:52.474Z,100210.41
2023-01-13T18:28:57.789Z,100218.31
2023-01-13T18:39:01.499Z,100230.66
2023-01-13T18:49:06.606Z,100250.25
2023-01-13T18:59:10.497Z,100266.28
2023-01-13T19:09:16.328Z,100290.22
2023-01-13T19:19:20.265Z,100291.84
2023-01-13T19:29:25.299Z,100310.63
2023-01-13T19:39:29.110Z,100340.84
2023-01-13T19:49:34.523Z,100340.53
2023-01-13T19:59:40.872Z,100353.94
2023-01-13T20:09:45.929Z,100361.19
2023-01-13T20:19:49.710Z,100356.59
2023-01-13T20:29:55.015Z,100389.09
2023-01-13T20:40:01.461Z,100391.19
2023-01-13T20:50:08.015Z,100394.22
2023-01-13T21:00:12.931Z,100390.06
2023-01-13T21:10:18.242Z,100420.50
2023-01-13T21:20:22.280Z,100424.88
2023-01-13T21:30:27.437Z,100416.09
2023-01-13T21:40:31.161Z,100441.44
2023-01-13T21:50:38.319Z,100447.09
2023-01-13T22:00:44.390Z,100469.84
2023-01-13T22:10:57.482Z,100469.28
2023-01-13T22:21:02.128Z,100480.81
2023-01-13T22:31:10.934Z,100496.91
2023-01-13T22:41:14.594Z,100496.31
2023-01-13T22:51:19.815Z,100536.81
2023-01-13T23:01:24.783Z,100559.06
2023-01-13T23:11:31.467Z,100543.09
2023-01-13T23:21:37.880Z,100555.00
2023-01-13T23:31:43.219Z,100579.91
2023-01-13T23:41:46.871Z,100560.09
2023-01-13T23:51:52.876Z,100581.66
